createdAt,value
2018-08-25T00:01:52.110Z,16.80
2018-08-25T00:04:22.742Z,16.80
2018-08-25T00:06:53.399Z,16.80
2018-08-25T00:09:24.027Z,16.80
2018-08-25T00:11:55.034Z,16.80
2018-08-25T00:14:25.874Z,16.80
2018-08-25T00:17:03.042Z,16.80
2018-08-25T00:19:33.686Z,16.80
2018-08-25T00:22:04.707Z,16.80
2018-08-25T00:24:35.342Z,16.80
2018-08-25T00:27:06.891Z,16.80
2018-08-25T00:29:37.520Z,16.70
2018-08-25T00:32:08.400Z,16.70
2018-08-25T00:34:39.035Z,16.70
2018-08-25T00:37:10.753Z,16.70
2018-08-25T00:39:42.167Z,16.60
2018-08-25T00:42:14.775Z,16.60
2018-08-25T00:44:46.549Z,16.60
2018-08-25T00:47:17.629Z,16.60
2018-08-25T00:49:48.290Z,16.50
2018-08-25T00:52:18.970Z,16.50
2018-08-25T00:54:49.801Z,16.50
2018-08-25T00:57:20.834Z,16.40
2018-08-25T00:59:51.954Z,16.40
2018-08-25T01:02:22.603Z,16.40
2018-08-25T01:04:53.574Z,16.40
2018-08-25T01:07:24.210Z,16.40
2018-08-25T01:09:54.935Z,16.40
2018-08-25T01:12:25.639Z,16.30
2018-08-25T01:14:56.331Z,16.30
2018-08-25T01:17:26.950Z,16.30
2018-08-25T01:19:57.652Z,16.30
2018-08-25T01:22:28.521Z,16.30
2018-08-25T01:24:59.171Z,16.20
2018-08-25T01:27:29.830Z,16.20
2018-08-25T01:30:00.487Z,16.20
2018-08-25T01:32:31.131Z,16.20
2018-08-25T01:35:02.010Z,16.20
2018-08-25T01:37:32.640Z,16.10
2018-08-25T01:40:03.380Z,16.10
2018-08-25T01:42:34.043Z,16.00
2018-08-25T01:45:05.404Z,16.10
2018-08-25T01:47:36.039Z,16.10
2018-08-25T01:50:06.715Z,16.00
2018-08-25T01:52:37.342Z,16.00
2018-08-25T01:55:08.054Z,15.90
2018-08-25T01:57:38.696Z,15.90
2018-08-25T02:00:09.383Z,15.90
2018-08-25T02:02:40.053Z,15.80
2018-08-25T02:05:10.912Z,15.80
2018-08-25T02:07:41.610Z,15.80
2018-08-25T02:10:12.613Z,15.80
2018-08-25T02:12:43.307Z,15.80
2018-08-25T02:15:13.973Z,15.80
2018-08-25T02:17:44.647Z,15.80
2018-08-25T02:20:15.304Z,15.80
2018-08-25T02:22:46.099Z,15.80
2018-08-25T02:25:16.756Z,15.80
2018-08-25T02:27:47.468Z,15.80
2018-08-25T02:30:18.126Z,15.80
2018-08-25T02:32:48.819Z,15.80
2018-08-25T02:35:19.530Z,15.80
2018-08-25T02:37:50.249Z,15.80
2018-08-25T02:40:21.127Z,15.80
2018-08-25T02:42:51.866Z,15.80
2018-08-25T02:45:24.550Z,15.80
2018-08-25T02:47:55.529Z,15.80
2018-08-25T02:50:26.216Z,15.80
2018-08-25T02:52:56.868Z,15.80
2018-08-25T02:55:27.551Z,15.80
2018-08-25T02:57:58.200Z,15.80
2018-08-25T03:00:28.884Z,15.70
2018-08-25T03:02:59.532Z,15.70
2018-08-25T03:05:30.199Z,15.60
2018-08-25T03:08:00.849Z,15.50
2018-08-25T03:10:31.942Z,15.50
2018-08-25T03:13:02.580Z,15.40
2018-08-25T03:15:33.443Z,15.30
2018-08-25T03:18:04.224Z,15.20
2018-08-25T03:20:34.884Z,15.10
2018-08-25T03:23:05.896Z,15.10
2018-08-25T03:25:36.558Z,15.00
2018-08-25T03:28:07.190Z,14.90
2018-08-25T03:30:37.855Z,14.80
2018-08-25T03:33:08.843Z,14.80
2018-08-25T03:35:39.509Z,14.80
2018-08-25T03:38:10.214Z,14.70
2018-08-25T03:40:40.849Z,14.70
2018-08-25T03:43:11.556Z,14.60
2018-08-25T03:45:42.187Z,14.60
2018-08-25T03:48:12.869Z,14.60
2018-08-25T03:50:43.511Z,14.50
2018-08-25T03:53:14.189Z,14.50
2018-08-25T03:55:44.851Z,14.40
2018-08-25T03:58:15.525Z,14.40
2018-08-25T04:00:46.195Z,14.30
2018-08-25T04:03:16.841Z,14.30
2018-08-25T04:05:47.505Z,14.20
2018-08-25T04:08:18.478Z,14.20
2018-08-25T04:10:49.138Z,14.20
2018-08-25T04:13:19.822Z,14.20
2018-08-25T04:15:50.502Z,14.10
2018-08-25T04:18:21.143Z,14.10
2018-08-25T04:20:51.822Z,14.10
2018-08-25T04:23:22.479Z,14.00
2018-08-25T04:25:53.117Z,14.00
2018-08-25T04:28:25.511Z,14.00
2018-08-25T04:30:56.148Z,14.00
2018-08-25T04:33:26.877Z,13.90
2018-08-25T04:35:57.660Z,13.90
2018-08-25T04:38:28.327Z,13.90
2018-08-25T04:40:58.955Z,13.90
2018-08-25T04:43:29.632Z,13.90
2018-08-25T04:46:00.259Z,13.90
2018-08-25T04:48:30.918Z,13.90
2018-08-25T04:51:01.563Z,13.90
2018-08-25T04:53:32.244Z,13.90
2018-08-25T04:56:02.883Z,13.90
2018-08-25T04:58:33.549Z,13.80
2018-08-25T05:01:04.235Z,13.80
2018-08-25T05:03:34.904Z,13.80
2018-08-25T05:06:05.608Z,13.80
2018-08-25T05:08:36.243Z,13.80
2018-08-25T05:11:06.928Z,13.80
2018-08-25T05:13:37.563Z,13.80
2018-08-25T05:16:08.232Z,13.80
2018-08-25T05:18:38.879Z,13.80
2018-08-25T05:21:09.539Z,13.80
2018-08-25T05:23:40.171Z,13.80
2018-08-25T05:26:10.859Z,13.80
2018-08-25T05:28:41.525Z,13.80
2018-08-25T05:31:12.157Z,13.80
2018-08-25T05:33:42.815Z,13.80
2018-08-25T05:36:13.487Z,13.80
2018-08-25T05:38:44.122Z,13.80
2018-08-25T05:41:14.762Z,13.70
2018-08-25T05:43:45.467Z,13.70
2018-08-25T05:46:16.166Z,13.70
2018-08-25T05:48:46.818Z,13.70
2018-08-25T05:51:17.447Z,13.60
2018-08-25T05:53:48.120Z,13.60
2018-08-25T05:56:18.743Z,13.60
2018-08-25T05:58:49.564Z,13.60
2018-08-25T06:01:20.227Z,13.60
2018-08-25T06:03:51.122Z,13.60
2018-08-25T06:06:21.942Z,13.60
2018-08-25T06:08:52.599Z,13.50
2018-08-25T06:11:23.240Z,13.50
2018-08-25T06:13:53.895Z,13.50
2018-08-25T06:16:24.531Z,13.50
2018-08-25T06:18:55.191Z,13.50
2018-08-25T06:21:25.820Z,13.50
2018-08-25T06:23:56.479Z,13.60
2018-08-25T06:26:27.163Z,13.60
2018-08-25T06:28:57.855Z,13.60
2018-08-25T06:31:28.923Z,13.60
2018-08-25T06:33:59.546Z,13.60
2018-08-25T06:36:30.309Z,13.60
2018-08-25T06:39:01.118Z,13.60
2018-08-25T06:41:31.773Z,13.50
2018-08-25T06:44:02.426Z,13.50
2018-08-25T06:46:33.087Z,13.50
2018-08-25T06:49:03.723Z,13.40
2018-08-25T06:51:34.599Z,13.40
2018-08-25T06:54:05.253Z,13.40
2018-08-25T06:56:35.930Z,13.40
2018-08-25T06:59:06.559Z,13.40
2018-08-25T07:01:37.215Z,13.40
2018-08-25T07:04:07.903Z,13.40
2018-08-25T07:06:38.611Z,13.40
2018-08-25T07:09:10.976Z,13.40
2018-08-25T07:11:42.259Z,13.40
2018-08-25T07:14:13.300Z,13.50
2018-08-25T07:16:43.935Z,13.50
2018-08-25T07:19:14.594Z,13.50
2018-08-25T07:21:45.235Z,13.60
2018-08-25T07:24:15.891Z,13.60
2018-08-25T07:26:46.535Z,13.60
2018-08-25T07:29:17.300Z,13.60
2018-08-25T07:31:48.893Z,13.60
2018-08-25T07:34:19.576Z,13.60
2018-08-25T07:36:50.241Z,13.70
2018-08-25T07:39:20.907Z,13.70
2018-08-25T07:41:51.577Z,13.70
2018-08-25T07:44:22.275Z,13.70
2018-08-25T07:46:53.006Z,13.70
2018-08-25T07:49:23.705Z,13.80
2018-08-25T07:51:54.531Z,13.90
2018-08-25T07:54:25.189Z,13.90
2018-08-25T07:56:56.056Z,13.90
2018-08-25T07:59:26.696Z,14.00
2018-08-25T08:01:58.530Z,14.10
2018-08-25T08:07:06.624Z,14.20
2018-08-25T08:09:37.268Z,14.30
2018-08-25T08:12:14.579Z,14.30
2018-08-25T08:14:45.387Z,14.30
2018-08-25T08:17:16.260Z,14.30
2018-08-25T08:19:46.894Z,14.30
2018-08-25T08:22:17.562Z,14.20
2018-08-25T08:24:48.202Z,14.30
2018-08-25T08:27:18.868Z,14.30
2018-08-25T08:29:49.528Z,14.40
2018-08-25T08:32:20.158Z,14.40
2018-08-25T08:34:50.829Z,14.40
2018-08-25T08:37:21.659Z,14.50
2018-08-25T08:39:52.324Z,14.50
2018-08-25T08:42:23.042Z,14.60
2018-08-25T08:44:53.872Z,14.70
2018-08-25T08:47:24.564Z,14.70
2018-08-25T08:49:55.659Z,14.70
2018-08-25T08:52:26.475Z,14.70
2018-08-25T08:54:57.162Z,14.80
2018-08-25T08:57:27.803Z,14.80
2018-08-25T08:59:58.467Z,14.80
2018-08-25T09:02:29.107Z,14.70
2018-08-25T09:04:59.779Z,14.70
2018-08-25T09:07:30.412Z,14.70
2018-08-25T09:10:01.083Z,14.80
2018-08-25T09:12:31.728Z,14.80
2018-08-25T09:15:02.406Z,14.90
2018-08-25T09:17:33.092Z,15.00
2018-08-25T09:20:03.828Z,15.00
2018-08-25T09:22:34.477Z,15.10
2018-08-25T09:25:05.163Z,15.20
2018-08-25T09:27:35.873Z,15.20
2018-08-25T09:30:07.219Z,15.30
2018-08-25T09:32:38.082Z,15.40
2018-08-25T09:35:08.724Z,15.50
2018-08-25T09:37:39.392Z,15.60
2018-08-25T09:40:10.082Z,15.70
2018-08-25T09:42:40.719Z,15.80
2018-08-25T09:45:11.423Z,15.90
2018-08-25T09:47:42.062Z,16.00
2018-08-25T09:50:12.715Z,16.10
2018-08-25T09:52:43.355Z,16.10
2018-08-25T09:55:14.019Z,16.10
2018-08-25T09:57:44.665Z,16.00
2018-08-25T10:00:15.319Z,16.00
2018-08-25T10:02:45.992Z,15.90
2018-08-25T10:05:16.790Z,15.90
2018-08-25T10:07:47.559Z,15.80
2018-08-25T10:10:18.198Z,15.80
2018-08-25T10:12:48.888Z,15.90
2018-08-25T10:15:19.519Z,15.90
2018-08-25T10:17:50.183Z,15.90
2018-08-25T10:20:20.814Z,16.00
2018-08-25T10:22:51.532Z,16.00
2018-08-25T10:25:22.323Z,16.10
2018-08-25T10:27:52.980Z,16.10
2018-08-25T10:30:23.640Z,16.10
2018-08-25T10:32:54.667Z,16.10
2018-08-25T10:35:25.536Z,16.10
2018-08-25T10:37:56.167Z,16.00
2018-08-25T10:40:26.834Z,16.00
2018-08-25T10:42:57.472Z,16.00
2018-08-25T10:45:28.139Z,16.00
2018-08-25T10:47:58.799Z,16.00
2018-08-25T10:50:29.641Z,16.00
2018-08-25T10:53:00.300Z,16.00
2018-08-25T10:55:30.971Z,16.00
2018-08-25T10:58:01.639Z,16.10
2018-08-25T11:00:32.411Z,16.20
2018-08-25T11:03:03.162Z,16.30
2018-08-25T11:05:33.846Z,16.40
2018-08-25T11:08:04.784Z,16.50
2018-08-25T11:10:35.412Z,16.70
2018-08-25T11:13:06.431Z,16.80
2018-08-25T11:15:37.062Z,16.90
2018-08-25T11:18:07.871Z,17.00
2018-08-25T11:20:38.508Z,17.10
2018-08-25T11:23:09.195Z,17.30
2018-08-25T11:25:39.860Z,17.40
2018-08-25T11:28:10.514Z,17.40
2018-08-25T11:30:41.151Z,17.50
2018-08-25T11:33:11.815Z,17.60
2018-08-25T11:35:42.452Z,17.60
2018-08-25T11:38:13.207Z,17.60
2018-08-25T11:40:44.016Z,17.60
2018-08-25T11:43:14.683Z,17.60
2018-08-25T11:45:45.338Z,17.50
2018-08-25T11:48:16.015Z,17.40
2018-08-25T11:50:46.675Z,17.30
2018-08-25T11:53:17.307Z,17.10
2018-08-25T11:55:47.984Z,17.10
2018-08-25T11:58:18.612Z,17.00
2018-08-25T12:00:49.288Z,16.90
2018-08-25T12:03:20.032Z,16.80
2018-08-25T12:05:50.896Z,16.80
2018-08-25T12:08:21.542Z,16.80
2018-08-25T12:10:52.195Z,16.80
2018-08-25T12:13:22.900Z,16.80
2018-08-25T12:15:53.518Z,16.90
2018-08-25T12:18:26.153Z,17.10
2018-08-25T12:20:59.191Z,17.30
2018-08-25T12:23:32.016Z,17.40
2018-08-25T12:26:04.828Z,17.50
2018-08-25T12:28:39.947Z,17.60
2018-08-25T12:31:15.018Z,17.70
2018-08-25T12:33:47.772Z,17.80
2018-08-25T12:36:19.786Z,18.00
2018-08-25T12:38:54.999Z,18.10
2018-08-25T12:41:29.305Z,18.30
2018-08-25T12:44:03.044Z,18.40
2018-08-25T12:46:37.954Z,18.60
2018-08-25T12:49:10.604Z,18.70
2018-08-25T12:51:43.106Z,18.80
2018-08-25T12:54:16.534Z,18.90
2018-08-25T12:56:49.278Z,19.00
2018-08-25T12:59:21.641Z,19.00
2018-08-25T13:01:54.601Z,18.90
2018-08-25T13:04:26.331Z,18.90
2018-08-25T13:06:58.821Z,18.80
2018-08-25T13:09:29.522Z,18.70
2018-08-25T13:12:00.147Z,18.70
2018-08-25T13:14:30.992Z,18.60
2018-08-25T13:17:01.829Z,18.50
2018-08-25T13:19:32.724Z,18.40
2018-08-25T13:22:03.470Z,18.30
2018-08-25T13:24:34.281Z,18.10
2018-08-25T13:27:05.656Z,17.90
2018-08-25T13:29:36.311Z,17.80
2018-08-25T13:32:06.973Z,17.70
2018-08-25T13:34:37.810Z,17.60
2018-08-25T13:37:08.484Z,17.60
2018-08-25T13:39:39.130Z,17.60
2018-08-25T13:42:09.793Z,17.60
2018-08-25T13:44:40.431Z,17.60
2018-08-25T13:47:11.255Z,17.60
2018-08-25T13:49:41.892Z,17.60
2018-08-25T13:52:12.571Z,17.70
2018-08-25T13:54:43.238Z,17.60
2018-08-25T13:57:13.903Z,17.70
2018-08-25T13:59:44.537Z,17.60
2018-08-25T14:02:15.268Z,17.60
2018-08-25T14:04:45.956Z,17.60
2018-08-25T14:07:16.588Z,17.60
2018-08-25T14:09:47.254Z,17.60
2018-08-25T14:12:17.894Z,17.70
2018-08-25T14:14:48.550Z,17.70
2018-08-25T14:17:19.200Z,17.70
2018-08-25T14:19:49.882Z,17.70
2018-08-25T14:22:20.527Z,17.70
2018-08-25T14:24:51.196Z,17.70
2018-08-25T14:27:21.861Z,17.70
2018-08-25T14:29:52.522Z,17.70
2018-08-25T14:32:23.184Z,17.70
2018-08-25T14:34:54.043Z,17.70
2018-08-25T14:37:24.699Z,17.70
2018-08-25T14:39:55.392Z,17.70
2018-08-25T14:42:26.051Z,17.70
2018-08-25T14:44:56.711Z,17.70
2018-08-25T14:47:27.388Z,17.70
2018-08-25T14:49:58.020Z,17.70
2018-08-25T14:52:28.901Z,17.70
2018-08-25T14:54:59.540Z,17.60
2018-08-25T14:57:30.209Z,17.60
2018-08-25T15:00:00.874Z,17.40
2018-08-25T15:02:31.539Z,17.10
2018-08-25T15:05:02.171Z,16.80
2018-08-25T15:07:32.827Z,16.50
2018-08-25T15:10:03.571Z,16.20
2018-08-25T15:12:34.255Z,15.90
2018-08-25T15:15:05.312Z,15.60
2018-08-25T15:17:35.986Z,15.40
2018-08-25T15:20:06.654Z,15.30
2018-08-25T15:22:37.319Z,15.10
2018-08-25T15:25:07.988Z,15.00
2018-08-25T15:27:38.651Z,14.90
2018-08-25T15:30:09.342Z,14.80
2018-08-25T15:32:40.035Z,14.70
2018-08-25T15:35:10.689Z,14.60
2018-08-25T15:37:41.356Z,14.60
2018-08-25T15:40:11.992Z,14.50
2018-08-25T15:42:42.653Z,14.50
2018-08-25T15:45:13.327Z,14.40
2018-08-25T15:47:43.995Z,14.40
2018-08-25T15:50:14.908Z,14.40
2018-08-25T15:52:45.580Z,14.40
2018-08-25T15:55:16.259Z,14.40
2018-08-25T15:57:47.122Z,14.50
2018-08-25T16:00:17.960Z,14.50
2018-08-25T16:02:48.596Z,14.50
2018-08-25T16:05:19.296Z,14.50
2018-08-25T16:07:49.967Z,14.50
2018-08-25T16:10:20.672Z,14.50
2018-08-25T16:12:51.310Z,14.50
2018-08-25T16:15:21.984Z,14.50
2018-08-25T16:17:52.610Z,14.50
2018-08-25T16:20:23.272Z,14.60
2018-08-25T16:22:53.924Z,14.60
2018-08-25T16:25:25.125Z,14.60
2018-08-25T16:27:56.627Z,14.60
2018-08-25T16:30:27.267Z,14.60
2018-08-25T16:32:57.938Z,14.70
2018-08-25T16:35:28.562Z,14.70
2018-08-25T16:37:59.228Z,14.70
2018-08-25T16:40:29.860Z,14.70
2018-08-25T16:43:00.552Z,14.70
2018-08-25T16:45:31.228Z,14.70
2018-08-25T16:48:01.925Z,14.70
2018-08-25T16:50:32.555Z,14.70
2018-08-25T16:53:03.287Z,14.60
2018-08-25T16:55:33.920Z,14.60
2018-08-25T16:58:04.978Z,14.70
2018-08-25T17:00:35.647Z,14.70
2018-08-25T17:03:06.499Z,14.70
2018-08-25T17:05:37.212Z,14.70
2018-08-25T17:08:07.889Z,14.70
2018-08-25T17:10:38.716Z,14.70
2018-08-25T17:13:09.351Z,14.70
2018-08-25T17:15:40.014Z,14.70
2018-08-25T17:18:10.668Z,14.60
2018-08-25T17:20:41.330Z,14.60
2018-08-25T17:23:12.332Z,14.60
2018-08-25T17:25:43.004Z,14.50
2018-08-25T17:28:13.655Z,14.50
2018-08-25T17:30:44.295Z,14.40
2018-08-25T17:33:14.994Z,14.40
2018-08-25T17:35:45.795Z,14.30
2018-08-25T17:38:16.798Z,14.30
2018-08-25T17:40:47.435Z,14.30
2018-08-25T17:43:18.104Z,14.30
2018-08-25T17:45:48.855Z,14.30
2018-08-25T17:48:19.523Z,14.30
2018-08-25T17:50:50.195Z,14.30
2018-08-25T17:53:21.003Z,14.40
2018-08-25T17:55:51.640Z,14.40
2018-08-25T17:58:22.313Z,14.30
2018-08-25T18:00:52.947Z,14.30
2018-08-25T18:03:23.615Z,14.30
2018-08-25T18:05:54.276Z,14.30
2018-08-25T18:08:24.943Z,14.20
2018-08-25T18:10:55.636Z,14.20
2018-08-25T18:13:26.446Z,14.10
2018-08-25T18:15:57.097Z,14.10
2018-08-25T18:18:27.753Z,14.10
2018-08-25T18:20:58.462Z,14.00
2018-08-25T18:23:29.444Z,14.00
2018-08-25T18:26:00.254Z,14.00
2018-08-25T18:28:30.896Z,14.00
2018-08-25T18:31:01.564Z,13.90
2018-08-25T18:33:32.193Z,13.90
2018-08-25T18:36:02.863Z,13.80
2018-08-25T18:38:33.527Z,13.80
2018-08-25T18:41:04.183Z,13.80
2018-08-25T18:43:34.848Z,13.70
2018-08-25T18:46:06.036Z,13.70
2018-08-25T18:48:36.725Z,13.70
2018-08-25T18:51:08.010Z,13.60
2018-08-25T18:53:38.683Z,13.60
2018-08-25T18:56:09.413Z,13.50
2018-08-25T18:58:40.107Z,13.50
2018-08-25T19:01:11.108Z,13.50
2018-08-25T19:03:41.835Z,13.40
2018-08-25T19:06:12.575Z,13.40
2018-08-25T19:08:43.285Z,13.40
2018-08-25T19:11:14.104Z,13.30
2018-08-25T19:13:44.794Z,13.30
2018-08-25T19:16:15.468Z,13.20
2018-08-25T19:18:46.135Z,13.20
2018-08-25T19:21:16.795Z,13.20
2018-08-25T19:23:47.531Z,13.10
2018-08-25T19:26:18.310Z,13.10
2018-08-25T19:28:48.979Z,13.10
2018-08-25T19:31:19.615Z,13.00
2018-08-25T19:33:50.489Z,13.00
2018-08-25T19:36:21.134Z,13.00
2018-08-25T19:38:52.005Z,12.90
2018-08-25T19:41:22.822Z,12.90
2018-08-25T19:43:53.647Z,12.80
2018-08-25T19:46:24.299Z,12.80
2018-08-25T19:48:54.968Z,12.80
2018-08-25T19:51:25.671Z,12.80
2018-08-25T19:53:56.596Z,12.70
2018-08-25T19:56:27.226Z,12.70
2018-08-25T19:58:57.899Z,12.70
2018-08-25T20:01:28.555Z,12.70
2018-08-25T20:03:59.206Z,12.70
2018-08-25T20:06:29.908Z,12.70
2018-08-25T20:09:00.555Z,12.70
2018-08-25T20:11:31.232Z,12.70
2018-08-25T20:14:01.859Z,12.70
2018-08-25T20:16:32.527Z,12.70
2018-08-25T20:19:03.696Z,12.70
2018-08-25T20:21:34.355Z,12.70
2018-08-25T20:24:05.027Z,12.60
2018-08-25T20:26:35.691Z,12.60
2018-08-25T20:29:06.357Z,12.60
2018-08-25T20:31:37.007Z,12.60
2018-08-25T20:34:08.161Z,12.50
2018-08-25T20:36:38.798Z,12.50
2018-08-25T20:39:10.033Z,12.50
2018-08-25T20:41:40.667Z,12.50
2018-08-25T20:44:11.463Z,12.40
2018-08-25T20:46:42.109Z,12.40
2018-08-25T20:49:12.780Z,12.40
2018-08-25T20:51:43.451Z,12.40
2018-08-25T20:54:14.111Z,12.40
2018-08-25T20:56:44.808Z,12.30
2018-08-25T20:59:15.456Z,12.30
2018-08-25T21:01:46.102Z,12.30
2018-08-25T21:04:16.732Z,12.20
2018-08-25T21:06:47.427Z,12.20
2018-08-25T21:09:18.063Z,12.20
2018-08-25T21:11:48.743Z,12.20
2018-08-25T21:14:19.421Z,12.10
2018-08-25T21:16:50.087Z,12.10
2018-08-25T21:19:20.723Z,12.10
2018-08-25T21:21:51.378Z,12.10
2018-08-25T21:24:22.076Z,12.10
2018-08-25T21:26:52.711Z,12.00
2018-08-25T21:29:23.379Z,12.00
2018-08-25T21:31:54.020Z,12.00
2018-08-25T21:34:24.691Z,12.00
2018-08-25T21:36:55.327Z,11.90
2018-08-25T21:39:26.000Z,11.90
2018-08-25T21:41:56.647Z,11.90
2018-08-25T21:44:27.323Z,11.80
2018-08-25T21:46:58.011Z,11.80
2018-08-25T21:49:28.679Z,11.80
2018-08-25T21:51:59.525Z,11.80
2018-08-25T21:54:30.307Z,11.80
2018-08-25T21:57:00.935Z,11.80
2018-08-25T21:59:31.789Z,11.70
2018-08-25T22:02:02.738Z,11.70
2018-08-25T22:04:33.419Z,11.70
2018-08-25T22:07:04.088Z,11.60
2018-08-25T22:09:34.785Z,11.70
2018-08-25T22:12:05.808Z,11.60
2018-08-25T22:14:37.359Z,11.70
2018-08-25T22:17:08.075Z,11.60
2018-08-25T22:19:38.751Z,11.60
2018-08-25T22:22:09.416Z,11.60
2018-08-25T22:24:40.066Z,11.60
2018-08-25T22:27:10.776Z,11.60
2018-08-25T22:29:41.455Z,11.50
2018-08-25T22:32:12.098Z,11.60
2018-08-25T22:34:42.771Z,11.50
2018-08-25T22:37:13.623Z,11.50
2018-08-25T22:39:44.584Z,11.50
2018-08-25T22:42:15.257Z,11.50
2018-08-25T22:44:46.107Z,11.50
2018-08-25T22:47:16.988Z,11.50
2018-08-25T22:49:47.660Z,11.40
2018-08-25T22:52:22.550Z,11.50
2018-08-25T22:54:53.266Z,11.50
2018-08-25T22:57:23.886Z,11.40
2018-08-25T22:59:54.591Z,11.40
2018-08-25T23:02:25.336Z,11.40
2018-08-25T23:04:55.968Z,11.40
2018-08-25T23:07:26.654Z,11.40
2018-08-25T23:09:57.302Z,11.40
2018-08-25T23:12:28.065Z,11.40
2018-08-25T23:14:58.703Z,11.30
2018-08-25T23:17:29.508Z,11.30
2018-08-25T23:20:00.331Z,11.30
2018-08-25T23:22:30.995Z,11.30
2018-08-25T23:25:01.865Z,11.20
2018-08-25T23:27:32.531Z,11.20
2018-08-25T23:30:03.563Z,11.20
2018-08-25T23:32:34.196Z,11.20
2018-08-25T23:35:05.446Z,11.10
2018-08-25T23:37:36.098Z,11.20
2018-08-25T23:40:07.151Z,11.10
2018-08-25T23:42:37.783Z,11.10
2018-08-25T23:45:08.804Z,11.10
2018-08-25T23:47:39.464Z,11.00
2018-08-25T23:50:10.137Z,11.00
2018-08-25T23:52:40.799Z,11.00
2018-08-25T23:55:11.484Z,11.00
2018-08-25T23:57:42.192Z,11.00
